sensor_id;sensor_type;location;lat;lon;timestamp;P1;durP1;ratioP1;P2;durP2;ratioP2
63173;SDS011;49265;54.526;9.028;2024-03-23T00:53:46;21.52;;;2.90;;
63173;SDS011;49265;54.526;9.028;2024-03-23T00:56:11;13.75;;;3.50;;
63173;SDS011;49265;54.526;9.028;2024-03-23T00:58:36;17.80;;;2.30;;
63173;SDS011;49265;54.526;9.028;2024-03-23T01:01:02;17.42;;;2.58;;
63173;SDS011;49265;54.526;9.028;2024-03-23T01:03:29;22.23;;;3.08;;
63173;SDS011;49265;54.526;9.028;2024-03-23T01:05:54;21.02;;;2.63;;
63173;SDS011;49265;54.526;9.028;2024-03-23T01:08:20;21.70;;;2.70;;
63173;SDS011;49265;54.526;9.028;2024-03-23T01:10:58;17.42;;;2.88;;
63173;SDS011;49265;54.526;9.028;2024-03-23T01:13:23;20.63;;;2.53;;
63173;SDS011;49265;54.526;9.028;2024-03-23T01:15:49;17.35;;;2.92;;
63173;SDS011;49265;54.526;9.028;2024-03-23T01:18:15;18.25;;;3.20;;
63173;SDS011;49265;54.526;9.028;2024-03-23T01:20:40;21.02;;;3.20;;
63173;SDS011;49265;54.526;9.028;2024-03-23T01:23:05;18.60;;;2.78;;
63173;SDS011;49265;54.526;9.028;2024-03-23T01:25:31;17.17;;;2.60;;
63173;SDS011;49265;54.526;9.028;2024-03-23T01:27:56;17.63;;;4.13;;
63173;SDS011;49265;54.526;9.028;2024-03-23T01:30:21;18.25;;;2.42;;
63173;SDS011;49265;54.526;9.028;2024-03-23T01:32:47;22.73;;;3.58;;
63173;SDS011;49265;54.526;9.028;2024-03-23T01:35:12;23.45;;;2.80;;
63173;SDS011;49265;54.526;9.028;2024-03-23T01:37:37;13.60;;;2.58;;
63173;SDS011;49265;54.526;9.028;2024-03-23T01:40:03;23.17;;;2.80;;
63173;SDS011;49265;54.526;9.028;2024-03-23T01:42:29;15.90;;;4.03;;
63173;SDS011;49265;54.526;9.028;2024-03-23T01:44:54;25.63;;;2.80;;
63173;SDS011;49265;54.526;9.028;2024-03-23T01:47:20;23.98;;;3.50;;
63173;SDS011;49265;54.526;9.028;2024-03-23T01:49:45;19.98;;;4.00;;
63173;SDS011;49265;54.526;9.028;2024-03-23T01:52:10;15.63;;;2.90;;
63173;SDS011;49265;54.526;9.028;2024-03-23T01:54:36;20.15;;;3.30;;
63173;SDS011;49265;54.526;9.028;2024-03-23T01:57:01;18.42;;;3.35;;
63173;SDS011;49265;54.526;9.028;2024-03-23T01:59:27;22.08;;;3.58;;
63173;SDS011;49265;54.526;9.028;2024-03-23T02:01:52;21.50;;;3.35;;
63173;SDS011;49265;54.526;9.028;2024-03-23T02:04:20;24.55;;;4.13;;
63173;SDS011;49265;54.526;9.028;2024-03-23T02:06:46;14.98;;;2.42;;
63173;SDS011;49265;54.526;9.028;2024-03-23T02:09:11;17.65;;;2.85;;
63173;SDS011;49265;54.526;9.028;2024-03-23T02:11:36;17.13;;;3.20;;
63173;SDS011;49265;54.526;9.028;2024-03-23T02:14:02;15.43;;;2.22;;
63173;SDS011;49265;54.526;9.028;2024-03-23T02:16:27;13.38;;;2.22;;
63173;SDS011;49265;54.526;9.028;2024-03-23T02:18:52;21.90;;;3.28;;
63173;SDS011;49265;54.526;9.028;2024-03-23T02:21:18;20.70;;;3.13;;
63173;SDS011;49265;54.526;9.028;2024-03-23T02:23:43;14.00;;;2.28;;
63173;SDS011;49265;54.526;9.028;2024-03-23T02:26:08;22.73;;;3.53;;
63173;SDS011;49265;54.526;9.028;2024-03-23T02:28:33;13.48;;;3.20;;
63173;SDS011;49265;54.526;9.028;2024-03-23T02:30:59;14.70;;;3.20;;
63173;SDS011;49265;54.526;9.028;2024-03-23T02:33:26;21.23;;;3.88;;
63173;SDS011;49265;54.526;9.028;2024-03-23T02:35:55;18.42;;;3.10;;
63173;SDS011;49265;54.526;9.028;2024-03-23T02:38:20;17.02;;;2.50;;
63173;SDS011;49265;54.526;9.028;2024-03-23T02:40:46;13.48;;;2.47;;
63173;SDS011;49265;54.526;9.028;2024-03-23T02:43:11;14.02;;;2.65;;
63173;SDS011;49265;54.526;9.028;2024-03-23T02:45:36;23.95;;;3.08;;
63173;SDS011;49265;54.526;9.028;2024-03-23T02:48:02;16.15;;;2.70;;
63173;SDS011;49265;54.526;9.028;2024-03-23T02:50:29;17.05;;;3.00;;
63173;SDS011;49265;54.526;9.028;2024-03-23T02:52:54;15.95;;;3.25;;
63173;SDS011;49265;54.526;9.028;2024-03-23T02:55:19;18.05;;;3.17;;
63173;SDS011;49265;54.526;9.028;2024-03-23T02:57:45;18.02;;;2.58;;
63173;SDS011;49265;54.526;9.028;2024-03-23T03:00:10;20.15;;;3.22;;
63173;SDS011;49265;54.526;9.028;2024-03-23T03:02:36;19.83;;;3.85;;
63173;SDS011;49265;54.526;9.028;2024-03-23T03:05:02;20.08;;;3.15;;
63173;SDS011;49265;54.526;9.028;2024-03-23T03:07:30;25.58;;;3.22;;
63173;SDS011;49265;54.526;9.028;2024-03-23T03:09:55;20.20;;;2.58;;
63173;SDS011;49265;54.526;9.028;2024-03-23T03:12:20;23.48;;;2.80;;
63173;SDS011;49265;54.526;9.028;2024-03-23T03:14:46;18.58;;;2.85;;
63173;SDS011;49265;54.526;9.028;2024-03-23T03:17:11;24.73;;;3.67;;
63173;SDS011;49265;54.526;9.028;2024-03-23T03:19:36;26.27;;;2.90;;
63173;SDS011;49265;54.526;9.028;2024-03-23T03:22:02;17.38;;;2.70;;
63173;SDS011;49265;54.526;9.028;2024-03-23T03:24:29;20.70;;;2.95;;
63173;SDS011;49265;54.526;9.028;2024-03-23T03:26:54;12.48;;;2.58;;
63173;SDS011;49265;54.526;9.028;2024-03-23T03:29:20;20.95;;;2.90;;
63173;SDS011;49265;54.526;9.028;2024-03-23T03:31:45;19.15;;;2.53;;
63173;SDS011;49265;54.526;9.028;2024-03-23T03:34:11;18.42;;;3.70;;
63173;SDS011;49265;54.526;9.028;2024-03-23T03:36:36;19.55;;;3.10;;
63173;SDS011;49265;54.526;9.028;2024-03-23T03:39:02;23.55;;;3.03;;
63173;SDS011;49265;54.526;9.028;2024-03-23T03:41:31;17.88;;;2.60;;
63173;SDS011;49265;54.526;9.028;2024-03-23T03:43:57;22.88;;;3.28;;
63173;SDS011;49265;54.526;9.028;2024-03-23T03:46:26;25.65;;;3.17;;
63173;SDS011;49265;54.526;9.028;2024-03-23T03:48:51;20.80;;;3.13;;
63173;SDS011;49265;54.526;9.028;2024-03-23T03:51:17;27.48;;;3.80;;
63173;SDS011;49265;54.526;9.028;2024-03-23T03:53:42;27.83;;;3.63;;
63173;SDS011;49265;54.526;9.028;2024-03-23T03:56:07;24.60;;;3.65;;
63173;SDS011;49265;54.526;9.028;2024-03-23T03:58:33;26.25;;;4.32;;
63173;SDS011;49265;54.526;9.028;2024-03-23T04:00:58;18.27;;;2.83;;
63173;SDS011;49265;54.526;9.028;2024-03-23T04:03:24;23.02;;;4.30;;
63173;SDS011;49265;54.526;9.028;2024-03-23T04:05:53;22.75;;;3.05;;
63173;SDS011;49265;54.526;9.028;2024-03-23T04:08:19;14.85;;;3.63;;
63173;SDS011;49265;54.526;9.028;2024-03-23T04:10:44;20.80;;;3.05;;
63173;SDS011;49265;54.526;9.028;2024-03-23T04:13:09;26.67;;;4.10;;
63173;SDS011;49265;54.526;9.028;2024-03-23T04:15:35;23.10;;;3.45;;
63173;SDS011;49265;54.526;9.028;2024-03-23T04:18:00;18.60;;;2.92;;
63173;SDS011;49265;54.526;9.028;2024-03-23T04:20:25;25.88;;;4.10;;
63173;SDS011;49265;54.526;9.028;2024-03-23T04:22:51;21.60;;;3.35;;
63173;SDS011;49265;54.526;9.028;2024-03-23T04:25:16;21.83;;;3.60;;
63173;SDS011;49265;54.526;9.028;2024-03-23T04:27:41;15.38;;;3.20;;
63173;SDS011;49265;54.526;9.028;2024-03-23T04:30:07;21.88;;;3.60;;
63173;SDS011;49265;54.526;9.028;2024-03-23T04:32:38;28.80;;;4.93;;
63173;SDS011;49265;54.526;9.028;2024-03-23T04:35:04;19.38;;;4.22;;
63173;SDS011;49265;54.526;9.028;2024-03-23T04:37:37;29.73;;;3.78;;
63173;SDS011;49265;54.526;9.028;2024-03-23T04:40:03;22.40;;;3.50;;
63173;SDS011;49265;54.526;9.028;2024-03-23T04:42:29;24.98;;;3.47;;
63173;SDS011;49265;54.526;9.028;2024-03-23T04:44:54;21.63;;;3.80;;
63173;SDS011;49265;54.526;9.028;2024-03-23T04:47:20;22.20;;;3.60;;
63173;SDS011;49265;54.526;9.028;2024-03-23T04:49:45;32.10;;;3.78;;
63173;SDS011;49265;54.526;9.028;2024-03-23T04:52:10;24.80;;;3.78;;
63173;SDS011;49265;54.526;9.028;2024-03-23T04:54:36;22.50;;;3.67;;
63173;SDS011;49265;54.526;9.028;2024-03-23T04:57:01;24.13;;;3.58;;
63173;SDS011;49265;54.526;9.028;2024-03-23T04:59:27;22.02;;;3.83;;
63173;SDS011;49265;54.526;9.028;2024-03-23T05:01:52;26.95;;;4.50;;
63173;SDS011;49265;54.526;9.028;2024-03-23T05:04:17;28.45;;;4.38;;
63173;SDS011;49265;54.526;9.028;2024-03-23T05:06:43;19.10;;;3.05;;
63173;SDS011;49265;54.526;9.028;2024-03-23T05:09:08;24.80;;;4.22;;
63173;SDS011;49265;54.526;9.028;2024-03-23T05:11:39;23.85;;;4.80;;
63173;SDS011;49265;54.526;9.028;2024-03-23T05:14:05;26.52;;;5.18;;
63173;SDS011;49265;54.526;9.028;2024-03-23T05:16:30;21.55;;;3.22;;
63173;SDS011;49265;54.526;9.028;2024-03-23T05:18:56;20.08;;;2.95;;
63173;SDS011;49265;54.526;9.028;2024-03-23T05:21:21;30.40;;;3.58;;
63173;SDS011;49265;54.526;9.028;2024-03-23T05:23:46;22.70;;;3.30;;
63173;SDS011;49265;54.526;9.028;2024-03-23T05:26:12;24.77;;;3.97;;
63173;SDS011;49265;54.526;9.028;2024-03-23T05:28:37;31.20;;;3.65;;
63173;SDS011;49265;54.526;9.028;2024-03-23T05:31:03;26.92;;;3.47;;
63173;SDS011;49265;54.526;9.028;2024-03-23T05:33:28;26.73;;;4.63;;
63173;SDS011;49265;54.526;9.028;2024-03-23T05:35:57;26.67;;;3.75;;
63173;SDS011;49265;54.526;9.028;2024-03-23T05:38:22;22.65;;;3.45;;
63173;SDS011;49265;54.526;9.028;2024-03-23T05:40:58;25.42;;;3.63;;
63173;SDS011;49265;54.526;9.028;2024-03-23T05:43:23;22.15;;;2.88;;
63173;SDS011;49265;54.526;9.028;2024-03-23T05:45:58;16.70;;;4.05;;
63173;SDS011;49265;54.526;9.028;2024-03-23T05:48:27;26.15;;;5.25;;
63173;SDS011;49265;54.526;9.028;2024-03-23T05:50:53;22.60;;;4.07;;
63173;SDS011;49265;54.526;9.028;2024-03-23T05:53:18;24.08;;;3.60;;
63173;SDS011;49265;54.526;9.028;2024-03-23T05:55:47;21.50;;;3.22;;
63173;SDS011;49265;54.526;9.028;2024-03-23T05:58:15;22.45;;;3.72;;
63173;SDS011;49265;54.526;9.028;2024-03-23T06:00:41;19.42;;;3.42;;
63173;SDS011;49265;54.526;9.028;2024-03-23T06:03:07;24.58;;;3.60;;
63173;SDS011;49265;54.526;9.028;2024-03-23T06:05:32;18.92;;;3.80;;
63173;SDS011;49265;54.526;9.028;2024-03-23T06:07:58;22.75;;;3.47;;
63173;SDS011;49265;54.526;9.028;2024-03-23T06:10:23;24.75;;;4.38;;
63173;SDS011;49265;54.526;9.028;2024-03-23T06:12:48;23.75;;;3.08;;
63173;SDS011;49265;54.526;9.028;2024-03-23T06:15:17;19.15;;;3.42;;
63173;SDS011;49265;54.526;9.028;2024-03-23T06:17:42;15.98;;;3.38;;
63173;SDS011;49265;54.526;9.028;2024-03-23T06:20:07;15.45;;;3.25;;
63173;SDS011;49265;54.526;9.028;2024-03-23T06:22:33;33.45;;;4.47;;
63173;SDS011;49265;54.526;9.028;2024-03-23T06:24:58;14.02;;;2.80;;
63173;SDS011;49265;54.526;9.028;2024-03-23T06:27:24;22.65;;;3.38;;
63173;SDS011;49265;54.526;9.028;2024-03-23T06:29:49;17.98;;;3.03;;
63173;SDS011;49265;54.526;9.028;2024-03-23T06:32:14;19.13;;;3.67;;
63173;SDS011;49265;54.526;9.028;2024-03-23T06:34:43;24.58;;;4.57;;
63173;SDS011;49265;54.526;9.028;2024-03-23T06:37:09;19.50;;;3.30;;
63173;SDS011;49265;54.526;9.028;2024-03-23T06:39:37;22.48;;;2.97;;
63173;SDS011;49265;54.526;9.028;2024-03-23T06:42:03;16.08;;;3.38;;
63173;SDS011;49265;54.526;9.028;2024-03-23T06:44:28;13.32;;;2.67;;
63173;SDS011;49265;54.526;9.028;2024-03-23T06:46:54;16.80;;;2.58;;
63173;SDS011;49265;54.526;9.028;2024-03-23T06:49:19;19.23;;;3.35;;
63173;SDS011;49265;54.526;9.028;2024-03-23T06:51:45;19.90;;;2.80;;
63173;SDS011;49265;54.526;9.028;2024-03-23T06:54:11;20.20;;;2.75;;
63173;SDS011;49265;54.526;9.028;2024-03-23T06:56:36;14.13;;;3.00;;
63173;SDS011;49265;54.526;9.028;2024-03-23T06:59:01;21.88;;;3.72;;
63173;SDS011;49265;54.526;9.028;2024-03-23T07:01:27;20.50;;;4.28;;
63173;SDS011;49265;54.526;9.028;2024-03-23T07:03:54;18.63;;;2.60;;
63173;SDS011;49265;54.526;9.028;2024-03-23T07:06:19;24.40;;;3.45;;
63173;SDS011;49265;54.526;9.028;2024-03-23T07:08:44;24.05;;;3.83;;
63173;SDS011;49265;54.526;9.028;2024-03-23T07:11:10;20.77;;;2.90;;
63173;SDS011;49265;54.526;9.028;2024-03-23T07:13:35;19.98;;;3.05;;
63173;SDS011;49265;54.526;9.028;2024-03-23T07:16:00;14.98;;;3.08;;
63173;SDS011;49265;54.526;9.028;2024-03-23T07:18:26;17.40;;;2.88;;
63173;SDS011;49265;54.526;9.028;2024-03-23T07:20:52;23.48;;;3.53;;
63173;SDS011;49265;54.526;9.028;2024-03-23T07:23:17;17.73;;;4.15;;
63173;SDS011;49265;54.526;9.028;2024-03-23T07:25:42;18.35;;;2.33;;
63173;SDS011;49265;54.526;9.028;2024-03-23T07:28:08;19.33;;;2.95;;
63173;SDS011;49265;54.526;9.028;2024-03-23T07:30:33;10.80;;;1.85;;
63173;SDS011;49265;54.526;9.028;2024-03-23T07:32:58;7.82;;;1.90;;
63173;SDS011;49265;54.526;9.028;2024-03-23T07:35:24;4.03;;;0.85;;
63173;SDS011;49265;54.526;9.028;2024-03-23T07:37:49;8.93;;;1.40;;
63173;SDS011;49265;54.526;9.028;2024-03-23T07:40:14;6.75;;;1.48;;
63173;SDS011;49265;54.526;9.028;2024-03-23T07:42:40;5.38;;;1.08;;
63173;SDS011;49265;54.526;9.028;2024-03-23T07:45:05;7.32;;;1.20;;
63173;SDS011;49265;54.526;9.028;2024-03-23T07:47:30;5.68;;;1.17;;
63173;SDS011;49265;54.526;9.028;2024-03-23T07:49:56;11.02;;;1.45;;
63173;SDS011;49265;54.526;9.028;2024-03-23T07:52:21;5.40;;;1.23;;
63173;SDS011;49265;54.526;9.028;2024-03-23T07:54:47;13.95;;;2.58;;
63173;SDS011;49265;54.526;9.028;2024-03-23T07:57:12;12.10;;;2.10;;
63173;SDS011;49265;54.526;9.028;2024-03-23T07:59:37;7.38;;;1.60;;
63173;SDS011;49265;54.526;9.028;2024-03-23T08:02:03;14.57;;;2.42;;
63173;SDS011;49265;54.526;9.028;2024-03-23T08:04:28;9.52;;;2.00;;
63173;SDS011;49265;54.526;9.028;2024-03-23T08:06:54;16.63;;;2.65;;
63173;SDS011;49265;54.526;9.028;2024-03-23T08:09:19;10.82;;;2.25;;
63173;SDS011;49265;54.526;9.028;2024-03-23T08:11:45;13.07;;;2.45;;
63173;SDS011;49265;54.526;9.028;2024-03-23T08:14:11;18.27;;;2.38;;
63173;SDS011;49265;54.526;9.028;2024-03-23T08:16:37;13.70;;;2.72;;
63173;SDS011;49265;54.526;9.028;2024-03-23T08:19:02;15.27;;;2.42;;
63173;SDS011;49265;54.526;9.028;2024-03-23T08:21:29;14.57;;;2.17;;
63173;SDS011;49265;54.526;9.028;2024-03-23T08:23:54;19.45;;;2.22;;
63173;SDS011;49265;54.526;9.028;2024-03-23T08:26:19;10.32;;;2.00;;
63173;SDS011;49265;54.526;9.028;2024-03-23T08:28:45;12.10;;;1.60;;
63173;SDS011;49265;54.526;9.028;2024-03-23T08:31:11;14.38;;;2.13;;
63173;SDS011;49265;54.526;9.028;2024-03-23T08:33:37;10.38;;;2.28;;
63173;SDS011;49265;54.526;9.028;2024-03-23T08:36:04;8.65;;;1.85;;
63173;SDS011;49265;54.526;9.028;2024-03-23T08:38:29;9.75;;;2.08;;
63173;SDS011;49265;54.526;9.028;2024-03-23T08:41:01;15.23;;;2.10;;
63173;SDS011;49265;54.526;9.028;2024-03-23T08:43:27;8.93;;;1.90;;
63173;SDS011;49265;54.526;9.028;2024-03-23T08:45:53;11.20;;;1.67;;
63173;SDS011;49265;54.526;9.028;2024-03-23T08:48:22;7.97;;;1.65;;
63173;SDS011;49265;54.526;9.028;2024-03-23T08:50:47;9.68;;;1.42;;
63173;SDS011;49265;54.526;9.028;2024-03-23T08:53:13;12.05;;;1.73;;
63173;SDS011;49265;54.526;9.028;2024-03-23T08:55:38;13.57;;;1.67;;
63173;SDS011;49265;54.526;9.028;2024-03-23T08:58:03;13.63;;;1.58;;
63173;SDS011;49265;54.526;9.028;2024-03-23T09:00:29;10.35;;;2.35;;
63173;SDS011;49265;54.526;9.028;2024-03-23T09:02:54;5.90;;;1.38;;
63173;SDS011;49265;54.526;9.028;2024-03-23T09:05:20;7.75;;;1.45;;
63173;SDS011;49265;54.526;9.028;2024-03-23T09:07:46;9.70;;;1.80;;
63173;SDS011;49265;54.526;9.028;2024-03-23T09:10:11;8.75;;;1.30;;
63173;SDS011;49265;54.526;9.028;2024-03-23T09:12:36;9.95;;;1.25;;
63173;SDS011;49265;54.526;9.028;2024-03-23T09:15:02;9.43;;;1.95;;
63173;SDS011;49265;54.526;9.028;2024-03-23T09:17:27;12.10;;;1.30;;
63173;SDS011;49265;54.526;9.028;2024-03-23T09:19:53;15.55;;;2.42;;
63173;SDS011;49265;54.526;9.028;2024-03-23T09:22:18;11.18;;;1.55;;
63173;SDS011;49265;54.526;9.028;2024-03-23T09:24:43;11.70;;;1.77;;
63173;SDS011;49265;54.526;9.028;2024-03-23T09:27:09;7.57;;;1.50;;
63173;SDS011;49265;54.526;9.028;2024-03-23T09:29:34;13.43;;;2.95;;
63173;SDS011;49265;54.526;9.028;2024-03-23T09:31:59;12.98;;;1.95;;
63173;SDS011;49265;54.526;9.028;2024-03-23T09:34:25;17.63;;;2.35;;
63173;SDS011;49265;54.526;9.028;2024-03-23T09:36:51;18.38;;;2.63;;
63173;SDS011;49265;54.526;9.028;2024-03-23T09:39:16;8.50;;;1.33;;
63173;SDS011;49265;54.526;9.028;2024-03-23T09:41:42;8.73;;;1.83;;
63173;SDS011;49265;54.526;9.028;2024-03-23T09:44:07;9.95;;;1.20;;
63173;SDS011;49265;54.526;9.028;2024-03-23T09:46:33;12.25;;;1.75;;
63173;SDS011;49265;54.526;9.028;2024-03-23T09:49:01;19.67;;;1.98;;
63173;SDS011;49265;54.526;9.028;2024-03-23T09:51:29;12.13;;;1.48;;
63173;SDS011;49265;54.526;9.028;2024-03-23T09:53:55;8.70;;;1.40;;
63173;SDS011;49265;54.526;9.028;2024-03-23T09:56:21;7.65;;;1.52;;
63173;SDS011;49265;54.526;9.028;2024-03-23T09:58:46;6.05;;;1.33;;
63173;SDS011;49265;54.526;9.028;2024-03-23T10:01:11;13.45;;;2.22;;
63173;SDS011;49265;54.526;9.028;2024-03-23T10:03:46;12.77;;;1.52;;
63173;SDS011;49265;54.526;9.028;2024-03-23T10:06:11;14.82;;;1.52;;
63173;SDS011;49265;54.526;9.028;2024-03-23T10:08:37;11.63;;;2.05;;
63173;SDS011;49265;54.526;9.028;2024-03-23T10:11:15;10.60;;;1.52;;
63173;SDS011;49265;54.526;9.028;2024-03-23T10:13:41;9.15;;;1.48;;
63173;SDS011;49265;54.526;9.028;2024-03-23T10:16:07;11.80;;;1.48;;
63173;SDS011;49265;54.526;9.028;2024-03-23T10:18:32;8.85;;;1.50;;
63173;SDS011;49265;54.526;9.028;2024-03-23T10:23:30;5.72;;;1.25;;
63173;SDS011;49265;54.526;9.028;2024-03-23T10:26:03;13.15;;;1.85;;
63173;SDS011;49265;54.526;9.028;2024-03-23T10:28:37;5.80;;;1.75;;
63173;SDS011;49265;54.526;9.028;2024-03-23T10:31:08;6.72;;;1.35;;
63173;SDS011;49265;54.526;9.028;2024-03-23T10:33:36;8.13;;;1.30;;
63173;SDS011;49265;54.526;9.028;2024-03-23T10:36:09;9.98;;;1.35;;
63173;SDS011;49265;54.526;9.028;2024-03-23T10:38:34;11.35;;;2.55;;
63173;SDS011;49265;54.526;9.028;2024-03-23T10:41:00;13.38;;;1.70;;
63173;SDS011;49265;54.526;9.028;2024-03-23T12:01:31;8.50;;;1.98;;
63173;SDS011;49265;54.526;9.028;2024-03-23T12:03:57;11.52;;;1.30;;
63173;SDS011;49265;54.526;9.028;2024-03-23T12:06:22;4.88;;;1.10;;
63173;SDS011;49265;54.526;9.028;2024-03-23T12:08:47;7.00;;;1.83;;
63173;SDS011;49265;54.526;9.028;2024-03-23T12:11:14;13.52;;;2.05;;
63173;SDS011;49265;54.526;9.028;2024-03-23T12:13:40;9.68;;;1.70;;
63173;SDS011;49265;54.526;9.028;2024-03-23T12:18:35;7.20;;;1.48;;
63173;SDS011;49265;54.526;9.028;2024-03-23T12:21:00;9.60;;;1.77;;
63173;SDS011;49265;54.526;9.028;2024-03-23T12:23:25;10.00;;;1.55;;
63173;SDS011;49265;54.526;9.028;2024-03-23T12:25:51;9.38;;;1.50;;
63173;SDS011;49265;54.526;9.028;2024-03-23T12:28:16;10.88;;;1.27;;
63173;SDS011;49265;54.526;9.028;2024-03-23T12:30:42;11.93;;;1.92;;
63173;SDS011;49265;54.526;9.028;2024-03-23T12:33:07;7.88;;;1.15;;
63173;SDS011;49265;54.526;9.028;2024-03-23T12:35:33;11.93;;;1.58;;
63173;SDS011;49265;54.526;9.028;2024-03-23T12:38:01;11.52;;;1.92;;
63173;SDS011;49265;54.526;9.028;2024-03-23T12:54:28;6.38;;;1.77;;
63173;SDS011;49265;54.526;9.028;2024-03-23T12:56:53;17.13;;;1.88;;
63173;SDS011;49265;54.526;9.028;2024-03-23T12:59:19;12.35;;;1.55;;
63173;SDS011;49265;54.526;9.028;2024-03-23T13:01:45;14.75;;;2.08;;
63173;SDS011;49265;54.526;9.028;2024-03-23T13:04:10;12.18;;;2.00;;
63173;SDS011;49265;54.526;9.028;2024-03-23T13:06:36;12.35;;;1.83;;
63173;SDS011;49265;54.526;9.028;2024-03-23T13:09:01;17.50;;;2.55;;
63173;SDS011;49265;54.526;9.028;2024-03-23T13:13:53;10.40;;;1.60;;
63173;SDS011;49265;54.526;9.028;2024-03-23T13:16:19;8.13;;;1.30;;
63173;SDS011;49265;54.526;9.028;2024-03-23T13:18:44;6.32;;;1.30;;
63173;SDS011;49265;54.526;9.028;2024-03-23T13:21:21;9.63;;;1.30;;
63173;SDS011;49265;54.526;9.028;2024-03-23T13:23:47;12.15;;;1.85;;
63173;SDS011;49265;54.526;9.028;2024-03-23T13:26:13;18.42;;;2.72;;
63173;SDS011;49265;54.526;9.028;2024-03-23T13:28:38;13.27;;;2.42;;
63173;SDS011;49265;54.526;9.028;2024-03-23T13:31:07;12.50;;;1.70;;
63173;SDS011;49265;54.526;9.028;2024-03-23T13:33:33;12.55;;;1.52;;
63173;SDS011;49265;54.526;9.028;2024-03-23T13:35:59;3.13;;;0.95;;
63173;SDS011;49265;54.526;9.028;2024-03-23T13:38:25;8.25;;;1.63;;
63173;SDS011;49265;54.526;9.028;2024-03-23T13:40:54;13.05;;;1.80;;
63173;SDS011;49265;54.526;9.028;2024-03-23T13:43:20;5.38;;;1.60;;
63173;SDS011;49265;54.526;9.028;2024-03-23T13:45:48;13.30;;;1.60;;
63173;SDS011;49265;54.526;9.028;2024-03-23T13:48:15;11.85;;;1.50;;
63173;SDS011;49265;54.526;9.028;2024-03-23T13:50:40;7.35;;;1.33;;
63173;SDS011;49265;54.526;9.028;2024-03-23T13:53:06;7.05;;;1.40;;
63173;SDS011;49265;54.526;9.028;2024-03-23T13:55:31;9.68;;;1.13;;
63173;SDS011;49265;54.526;9.028;2024-03-23T14:05:57;8.88;;;1.85;;
63173;SDS011;49265;54.526;9.028;2024-03-23T14:08:23;11.75;;;1.48;;
63173;SDS011;49265;54.526;9.028;2024-03-23T14:10:48;9.30;;;1.75;;
63173;SDS011;49265;54.526;9.028;2024-03-23T14:13:13;8.40;;;1.65;;
63173;SDS011;49265;54.526;9.028;2024-03-23T14:15:38;11.75;;;1.50;;
63173;SDS011;49265;54.526;9.028;2024-03-23T14:18:04;10.27;;;1.60;;
63173;SDS011;49265;54.526;9.028;2024-03-23T14:20:29;8.82;;;1.77;;
63173;SDS011;49265;54.526;9.028;2024-03-23T14:22:54;13.00;;;2.05;;
63173;SDS011;49265;54.526;9.028;2024-03-23T14:25:21;10.00;;;1.45;;
63173;SDS011;49265;54.526;9.028;2024-03-23T14:27:49;14.07;;;1.90;;
63173;SDS011;49265;54.526;9.028;2024-03-23T14:30:14;9.00;;;1.90;;
63173;SDS011;49265;54.526;9.028;2024-03-23T14:32:39;9.00;;;1.80;;
63173;SDS011;49265;54.526;9.028;2024-03-23T14:35:05;8.60;;;1.35;;
63173;SDS011;49265;54.526;9.028;2024-03-23T14:37:38;8.13;;;1.50;;
63173;SDS011;49265;54.526;9.028;2024-03-23T14:40:04;15.18;;;1.85;;
63173;SDS011;49265;54.526;9.028;2024-03-23T14:42:29;13.00;;;2.10;;
63173;SDS011;49265;54.526;9.028;2024-03-23T14:44:56;13.48;;;2.10;;
63173;SDS011;49265;54.526;9.028;2024-03-23T14:47:22;8.85;;;1.52;;
63173;SDS011;49265;54.526;9.028;2024-03-23T14:49:47;11.50;;;1.77;;
63173;SDS011;49265;54.526;9.028;2024-03-23T14:52:13;9.15;;;2.47;;
63173;SDS011;49265;54.526;9.028;2024-03-23T14:54:38;10.88;;;1.77;;
63173;SDS011;49265;54.526;9.028;2024-03-23T14:57:04;13.52;;;1.80;;
63173;SDS011;49265;54.526;9.028;2024-03-23T14:59:29;11.43;;;1.73;;
63173;SDS011;49265;54.526;9.028;2024-03-23T15:01:55;11.98;;;3.42;;
63173;SDS011;49265;54.526;9.028;2024-03-23T15:04:20;14.75;;;2.15;;
63173;SDS011;49265;54.526;9.028;2024-03-23T15:06:46;10.88;;;2.22;;
63173;SDS011;49265;54.526;9.028;2024-03-23T15:09:14;15.57;;;2.50;;
63173;SDS011;49265;54.526;9.028;2024-03-23T15:11:40;12.80;;;2.22;;
63173;SDS011;49265;54.526;9.028;2024-03-23T15:14:05;13.73;;;1.92;;
63173;SDS011;49265;54.526;9.028;2024-03-23T15:16:32;9.20;;;1.30;;
63173;SDS011;49265;54.526;9.028;2024-03-23T15:18:57;6.93;;;1.52;;
63173;SDS011;49265;54.526;9.028;2024-03-23T15:21:23;10.27;;;1.75;;
63173;SDS011;49265;54.526;9.028;2024-03-23T15:23:48;12.75;;;2.40;;
63173;SDS011;49265;54.526;9.028;2024-03-23T15:26:13;10.52;;;2.20;;
63173;SDS011;49265;54.526;9.028;2024-03-23T15:28:41;15.63;;;2.53;;
63173;SDS011;49265;54.526;9.028;2024-03-23T15:31:24;11.63;;;1.98;;
63173;SDS011;49265;54.526;9.028;2024-03-23T15:33:50;14.18;;;2.08;;
63173;SDS011;49265;54.526;9.028;2024-03-23T15:36:15;13.90;;;2.15;;
63173;SDS011;49265;54.526;9.028;2024-03-23T15:38:40;15.82;;;1.90;;
63173;SDS011;49265;54.526;9.028;2024-03-23T15:41:06;7.88;;;1.45;;
63173;SDS011;49265;54.526;9.028;2024-03-23T15:43:31;10.40;;;1.83;;
63173;SDS011;49265;54.526;9.028;2024-03-23T15:45:57;10.55;;;1.55;;
63173;SDS011;49265;54.526;9.028;2024-03-23T15:48:23;10.73;;;2.30;;
63173;SDS011;49265;54.526;9.028;2024-03-23T15:50:51;10.27;;;2.40;;
63173;SDS011;49265;54.526;9.028;2024-03-23T15:53:18;19.08;;;2.60;;
63173;SDS011;49265;54.526;9.028;2024-03-23T15:55:44;18.55;;;2.80;;
63173;SDS011;49265;54.526;9.028;2024-03-23T15:58:09;13.90;;;2.10;;
63173;SDS011;49265;54.526;9.028;2024-03-23T16:00:34;12.68;;;1.95;;
63173;SDS011;49265;54.526;9.028;2024-03-23T16:02:59;17.33;;;3.80;;
63173;SDS011;49265;54.526;9.028;2024-03-23T16:05:25;12.93;;;2.47;;
63173;SDS011;49265;54.526;9.028;2024-03-23T16:07:50;14.38;;;2.17;;
63173;SDS011;49265;54.526;9.028;2024-03-23T16:10:15;10.35;;;2.30;;
63173;SDS011;49265;54.526;9.028;2024-03-23T16:12:40;16.08;;;2.95;;
63173;SDS011;49265;54.526;9.028;2024-03-23T16:15:06;15.07;;;2.53;;
63173;SDS011;49265;54.526;9.028;2024-03-23T16:17:31;26.83;;;4.43;;
63173;SDS011;49265;54.526;9.028;2024-03-23T16:20:01;14.85;;;1.90;;
63173;SDS011;49265;54.526;9.028;2024-03-23T16:22:26;16.65;;;2.88;;
63173;SDS011;49265;54.526;9.028;2024-03-23T16:24:51;15.05;;;2.00;;
63173;SDS011;49265;54.526;9.028;2024-03-23T16:27:17;19.02;;;2.58;;
63173;SDS011;49265;54.526;9.028;2024-03-23T16:29:42;12.93;;;2.88;;
63173;SDS011;49265;54.526;9.028;2024-03-23T16:32:07;23.03;;;3.50;;
63173;SDS011;49265;54.526;9.028;2024-03-23T16:34:32;9.73;;;1.80;;
63173;SDS011;49265;54.526;9.028;2024-03-23T16:36:58;16.80;;;2.97;;
63173;SDS011;49265;54.526;9.028;2024-03-23T16:39:23;10.73;;;2.47;;
63173;SDS011;49265;54.526;9.028;2024-03-23T16:41:49;15.05;;;2.67;;
63173;SDS011;49265;54.526;9.028;2024-03-23T16:44:14;14.88;;;2.63;;
63173;SDS011;49265;54.526;9.028;2024-03-23T16:46:39;18.00;;;2.65;;
63173;SDS011;49265;54.526;9.028;2024-03-23T16:49:07;7.30;;;1.70;;
63173;SDS011;49265;54.526;9.028;2024-03-23T16:51:32;16.77;;;2.30;;
63173;SDS011;49265;54.526;9.028;2024-03-23T16:53:57;24.70;;;3.08;;
63173;SDS011;49265;54.526;9.028;2024-03-23T16:56:24;18.50;;;2.88;;
63173;SDS011;49265;54.526;9.028;2024-03-23T16:58:49;18.70;;;2.47;;
63173;SDS011;49265;54.526;9.028;2024-03-23T17:01:15;10.95;;;2.10;;
63173;SDS011;49265;54.526;9.028;2024-03-23T17:03:48;22.42;;;2.53;;
63173;SDS011;49265;54.526;9.028;2024-03-23T17:06:14;13.80;;;2.22;;
63173;SDS011;49265;54.526;9.028;2024-03-23T17:08:41;11.15;;;2.05;;